createdAt,value
2022-10-12T00:01:44.864Z,23.80
2022-10-12T00:05:06.032Z,23.00
2022-10-12T00:08:46.327Z,21.50
2022-10-12T00:12:21.169Z,23.40
2022-10-12T00:16:19.083Z,21.30
2022-10-12T00:19:59.181Z,24.10
2022-10-12T00:23:19.969Z,22.70
2022-10-12T00:26:57.839Z,23.60
2022-10-12T00:30:39.300Z,23.10
2022-10-12T00:34:13.121Z,22.80
2022-10-12T00:37:55.005Z,22.80
2022-10-12T00:41:32.924Z,22.70
2022-10-12T00:45:26.554Z,23.80
2022-10-12T00:48:54.110Z,23.50
2022-10-12T00:52:31.652Z,22.80
2022-10-12T00:56:07.137Z,25.00
2022-10-12T00:59:52.872Z,22.20
2022-10-12T01:03:22.347Z,23.20
2022-10-12T01:07:14.723Z,22.90
2022-10-12T01:10:35.776Z,23.90
2022-10-12T01:14:32.345Z,21.40
2022-10-12T01:18:16.206Z,24.20
2022-10-12T01:22:02.714Z,25.20
2022-10-12T01:25:41.936Z,23.00
2022-10-12T01:29:15.969Z,25.30
2022-10-12T01:33:15.725Z,23.60
2022-10-12T01:37:15.276Z,23.60
2022-10-12T01:40:42.329Z,22.10
2022-10-12T01:44:32.444Z,23.90
2022-10-12T01:48:17.041Z,24.90
2022-10-12T01:52:21.346Z,24.50
2022-10-12T01:55:56.261Z,22.20
2022-10-12T01:59:37.365Z,23.50
2022-10-12T02:03:17.966Z,19.80
2022-10-12T02:06:46.230Z,20.00
2022-10-12T02:10:26.613Z,20.80
2022-10-12T02:14:00.286Z,19.70
2022-10-12T02:17:35.011Z,20.60
2022-10-12T02:21:15.990Z,20.50
2022-10-12T02:24:52.785Z,18.50
2022-10-12T02:28:30.017Z,17.30
2022-10-12T02:32:37.550Z,19.10
2022-10-12T02:36:16.921Z,18.70
2022-10-12T02:39:47.984Z,17.60
2022-10-12T02:43:44.043Z,16.90
2022-10-12T02:47:08.544Z,17.70
2022-10-12T02:51:02.930Z,17.60
2022-10-12T02:54:24.435Z,16.60
2022-10-12T02:58:01.871Z,14.70
2022-10-12T03:01:39.700Z,14.90
2022-10-12T03:05:17.334Z,16.30
2022-10-12T03:08:57.223Z,16.50
2022-10-12T03:12:32.592Z,17.00
2022-10-12T03:16:29.397Z,16.40
2022-10-12T03:20:09.767Z,14.20
2022-10-12T03:23:49.207Z,17.20
2022-10-12T03:27:09.943Z,17.60
2022-10-12T03:31:06.562Z,19.60
2022-10-12T03:34:46.284Z,19.90
2022-10-12T03:38:25.760Z,20.60
2022-10-12T03:41:46.803Z,23.70
2022-10-12T03:45:43.410Z,27.00
2022-10-12T03:49:04.599Z,26.80
2022-10-12T03:52:42.212Z,26.00
2022-10-12T03:56:38.704Z,25.10
2022-10-12T04:00:18.749Z,25.00
2022-10-12T04:03:58.166Z,22.40
2022-10-12T04:07:19.331Z,22.50
2022-10-12T04:10:56.658Z,22.70
2022-10-12T04:14:53.069Z,26.10
2022-10-12T04:18:13.693Z,30.50
2022-10-12T04:21:51.277Z,25.40
2022-10-12T04:25:30.265Z,22.40
2022-10-12T04:29:06.567Z,21.30
2022-10-12T04:33:03.370Z,16.50
2022-10-12T04:36:24.848Z,17.30
2022-10-12T04:40:02.119Z,17.00
2022-10-12T04:43:39.470Z,17.20
2022-10-12T04:47:17.242Z,17.70
2022-10-12T04:50:54.763Z,17.80
2022-10-12T04:54:33.030Z,17.30
2022-10-12T04:58:10.263Z,16.50
2022-10-12T05:01:47.939Z,15.20
2022-10-12T05:05:44.872Z,16.70
2022-10-12T05:09:24.335Z,15.60
2022-10-12T05:12:44.858Z,23.00
2022-10-12T05:16:22.558Z,19.00
2022-10-12T05:20:19.019Z,16.80
2022-10-12T05:23:59.009Z,16.30
2022-10-12T05:27:19.877Z,15.40
2022-10-12T05:31:16.294Z,15.80
2022-10-12T05:34:37.458Z,16.20
2022-10-12T05:38:15.171Z,14.30
2022-10-12T05:42:11.827Z,17.00
2022-10-12T05:45:51.487Z,16.50
2022-10-12T05:49:12.028Z,16.80
2022-10-12T05:52:49.616Z,16.60
2022-10-12T05:56:27.343Z,18.40
2022-10-12T06:00:23.703Z,16.30
2022-10-12T06:03:44.143Z,15.80
2022-10-12T06:07:21.918Z,13.00
2022-10-12T06:11:18.417Z,13.30
2022-10-12T06:14:39.513Z,16.00
2022-10-12T06:18:18.348Z,25.10
2022-10-12T06:21:54.971Z,26.70
2022-10-12T06:25:52.056Z,23.70
2022-10-12T06:29:12.901Z,18.10
2022-10-12T06:32:50.488Z,17.20
2022-10-12T06:36:28.179Z,15.70
2022-10-12T06:40:06.612Z,14.60
2022-10-12T06:43:43.670Z,16.90
2022-10-12T06:47:21.362Z,18.40
2022-10-12T06:51:18.250Z,19.10
2022-10-12T06:54:38.841Z,24.80
2022-10-12T06:58:35.592Z,21.00
2022-10-12T07:02:15.593Z,20.70
2022-10-12T07:05:36.571Z,18.00
2022-10-12T07:09:14.499Z,22.00
2022-10-12T07:13:10.588Z,40.80
2022-10-12T07:16:31.243Z,34.60
2022-10-12T07:20:09.035Z,30.30
2022-10-12T07:24:05.906Z,41.50
2022-10-12T07:27:29.649Z,31.80
2022-10-12T07:31:26.609Z,29.50
2022-10-12T07:34:47.499Z,35.60
2022-10-12T07:38:25.123Z,26.90
2022-10-12T07:42:02.999Z,22.30
2022-10-12T07:45:41.454Z,20.70
2022-10-12T07:49:37.011Z,17.10
2022-10-12T07:53:00.563Z,15.80
2022-10-12T07:56:35.955Z,14.50
2022-10-12T08:00:13.668Z,14.60
2022-10-12T08:03:51.109Z,15.50
2022-10-12T08:07:28.383Z,15.80
2022-10-12T08:11:07.209Z,14.10
2022-10-12T08:14:43.694Z,13.70
2022-10-12T08:18:21.362Z,10.00
2022-10-12T08:21:59.207Z,10.00
2022-10-12T08:25:38.116Z,9.20
2022-10-12T08:29:14.509Z,6.80
2022-10-12T08:32:52.046Z,4.70
2022-10-12T08:36:30.543Z,4.00
2022-10-12T08:40:31.448Z,4.20
2022-10-12T08:44:17.073Z,3.90
2022-10-12T08:47:42.996Z,4.60
2022-10-12T08:51:22.761Z,2.70
2022-10-12T08:54:55.110Z,3.70
2022-10-12T08:58:51.825Z,3.90
2022-10-12T09:02:44.430Z,3.40
2022-10-12T09:06:19.707Z,10.10
2022-10-12T09:09:48.957Z,2.40
2022-10-12T09:13:47.473Z,4.00
2022-10-12T09:17:22.228Z,6.80
2022-10-12T09:20:49.367Z,4.80
2022-10-12T09:24:27.147Z,5.90
2022-10-12T09:28:25.682Z,4.90
2022-10-12T09:32:18.690Z,7.30
2022-10-12T09:36:02.820Z,4.80
2022-10-12T09:39:32.958Z,4.90
2022-10-12T09:43:20.238Z,10.70
2022-10-12T09:46:45.736Z,4.10
2022-10-12T09:50:40.216Z,4.00
2022-10-12T09:54:03.973Z,4.00
2022-10-12T09:57:42.271Z,3.30
2022-10-12T10:01:21.839Z,2.30
2022-10-12T10:04:55.589Z,2.80
2022-10-12T10:08:51.531Z,2.10
2022-10-12T10:12:27.367Z,2.20
2022-10-12T10:15:52.310Z,2.60
2022-10-12T10:19:57.532Z,2.70
2022-10-12T10:23:42.431Z,2.70
2022-10-12T10:27:06.161Z,2.80
2022-10-12T10:30:42.421Z,2.40
2022-10-12T10:34:22.814Z,3.10
2022-10-12T10:37:59.368Z,2.50
2022-10-12T10:41:43.233Z,1.80
2022-10-12T10:45:26.545Z,2.10
2022-10-12T10:49:34.983Z,2.10
2022-10-12T10:53:26.638Z,2.00
2022-10-12T10:56:50.619Z,1.60
2022-10-12T11:00:41.257Z,1.20
2022-10-12T11:04:19.440Z,1.20
2022-10-12T11:08:04.736Z,1.30
2022-10-12T11:11:53.404Z,1.30
2022-10-12T11:15:42.450Z,1.40
2022-10-12T11:19:20.579Z,1.20
2022-10-12T11:22:53.216Z,1.50
2022-10-12T11:26:26.576Z,1.20
2022-10-12T11:30:23.413Z,1.00
2022-10-12T11:33:45.840Z,1.20
2022-10-12T11:37:30.068Z,1.20
2022-10-12T11:41:31.037Z,1.20
2022-10-12T11:44:48.796Z,1.50
2022-10-12T11:49:11.964Z,1.60
2022-10-12T11:52:54.681Z,1.70
2022-10-12T11:56:29.503Z,1.20
2022-10-12T11:59:59.254Z,1.30
2022-10-12T12:03:45.706Z,1.40
2022-10-12T12:07:45.767Z,1.40
2022-10-12T12:11:29.796Z,1.20
2022-10-12T12:14:53.776Z,1.00
2022-10-12T12:18:31.686Z,0.90
2022-10-12T12:22:31.907Z,1.50
2022-10-12T12:26:15.842Z,1.00
2022-10-12T12:29:53.701Z,1.10
2022-10-12T12:33:27.264Z,1.00
2022-10-12T12:37:22.217Z,1.00
2022-10-12T12:41:02.683Z,1.90
2022-10-12T12:44:44.770Z,1.30
2022-10-12T12:48:10.734Z,1.40
2022-10-12T12:51:44.918Z,1.50
2022-10-12T12:55:40.688Z,1.40
2022-10-12T12:59:33.119Z,1.30
2022-10-12T13:03:03.522Z,1.40
2022-10-12T13:07:06.827Z,1.60
2022-10-12T13:10:51.190Z,1.20
2022-10-12T13:14:43.765Z,1.40
2022-10-12T13:18:45.757Z,1.00
2022-10-12T13:22:19.175Z,1.40
2022-10-12T13:26:07.917Z,1.60
2022-10-12T13:29:59.687Z,1.70
2022-10-12T13:33:32.276Z,1.70
2022-10-12T13:37:09.672Z,1.90
2022-10-12T13:40:42.962Z,2.10
2022-10-12T13:44:25.184Z,1.70
2022-10-12T13:47:51.632Z,1.50
2022-10-12T13:51:31.173Z,1.50
2022-10-12T13:55:16.688Z,1.40
2022-10-12T13:58:44.912Z,1.30
2022-10-12T14:02:43.587Z,1.60
2022-10-12T14:06:05.197Z,1.70
2022-10-12T14:09:45.866Z,1.70
2022-10-12T14:13:33.110Z,1.80
2022-10-12T14:16:57.547Z,2.20
2022-10-12T14:20:41.193Z,1.90
2022-10-12T14:24:18.226Z,3.00
2022-10-12T14:27:56.326Z,2.20
2022-10-12T14:31:49.880Z,2.20
2022-10-12T14:35:38.266Z,2.20
2022-10-12T14:39:13.273Z,2.10
2022-10-12T14:42:36.589Z,1.80
2022-10-12T14:46:35.622Z,1.70
2022-10-12T14:49:59.992Z,1.50
2022-10-12T14:53:34.011Z,1.70
2022-10-12T14:57:16.725Z,1.10
2022-10-12T15:01:08.243Z,2.00
2022-10-12T15:04:29.119Z,3.40
2022-10-12T15:08:10.014Z,11.90
2022-10-12T15:11:44.510Z,2.20
2022-10-12T15:15:42.359Z,2.00
2022-10-12T15:19:22.861Z,1.60
2022-10-12T15:22:45.022Z,1.10
2022-10-12T15:26:21.378Z,1.00
2022-10-12T15:30:18.177Z,1.10
2022-10-12T15:33:40.433Z,1.90
2022-10-12T15:37:16.960Z,1.40
2022-10-12T15:40:58.064Z,1.60
2022-10-12T15:44:50.628Z,1.30
2022-10-12T15:48:11.315Z,1.00
2022-10-12T15:52:10.747Z,1.50
2022-10-12T15:55:34.418Z,1.20
2022-10-12T15:59:28.198Z,2.10
2022-10-12T16:03:14.565Z,2.00
2022-10-12T16:06:54.046Z,1.60
2022-10-12T16:10:16.804Z,1.80
2022-10-12T16:14:13.879Z,1.50
2022-10-12T16:17:53.692Z,2.00
2022-10-12T16:21:32.947Z,1.40
2022-10-12T16:24:53.550Z,2.00
2022-10-12T16:28:50.109Z,2.20
2022-10-12T16:32:11.492Z,2.20
2022-10-12T16:35:48.929Z,2.80
2022-10-12T16:39:45.616Z,2.50
2022-10-12T16:43:06.635Z,2.20
2022-10-12T16:46:44.442Z,2.80
2022-10-12T16:50:40.654Z,3.10
2022-10-12T16:54:01.538Z,3.60
2022-10-12T16:57:58.015Z,2.90
2022-10-12T17:01:18.663Z,3.30
2022-10-12T17:05:14.894Z,3.50
2022-10-12T17:08:36.875Z,3.30
2022-10-12T17:12:13.659Z,2.90
2022-10-12T17:16:28.692Z,3.70
2022-10-12T17:19:49.465Z,3.30
2022-10-12T17:23:45.956Z,4.00
2022-10-12T17:27:08.695Z,4.00
2022-10-12T17:31:07.931Z,4.50
2022-10-12T17:34:34.537Z,4.80
2022-10-12T17:38:08.846Z,4.40
2022-10-12T17:41:47.155Z,3.90
2022-10-12T17:45:24.073Z,3.60
2022-10-12T17:49:03.713Z,3.90
2022-10-12T17:52:39.774Z,4.00
2022-10-12T17:56:36.298Z,4.00
2022-10-12T17:59:57.182Z,3.70
2022-10-12T18:03:36.899Z,3.50
2022-10-12T18:07:13.780Z,3.90
2022-10-12T18:11:09.393Z,4.10
2022-10-12T18:14:29.950Z,4.40
2022-10-12T18:18:10.526Z,3.60
2022-10-12T18:21:45.404Z,2.90
2022-10-12T18:25:23.107Z,3.90
2022-10-12T18:29:01.973Z,4.10
2022-10-12T18:32:38.373Z,3.80
2022-10-12T18:36:18.447Z,4.20
2022-10-12T18:39:53.831Z,4.20
2022-10-12T18:43:32.633Z,4.30
2022-10-12T18:47:12.198Z,3.80
2022-10-12T18:51:08.923Z,4.00
2022-10-12T18:54:29.564Z,3.70
2022-10-12T18:58:12.673Z,3.70
2022-10-12T19:01:45.501Z,4.30
2022-10-12T19:05:41.379Z,4.00
2022-10-12T19:09:20.639Z,4.80
2022-10-12T19:12:45.496Z,5.70
2022-10-12T19:16:37.370Z,5.30
2022-10-12T19:20:01.876Z,4.10
2022-10-12T19:23:35.505Z,5.10
2022-10-12T19:27:13.135Z,5.40
2022-10-12T19:30:51.687Z,5.10
2022-10-12T19:34:28.952Z,5.90
2022-10-12T19:38:25.700Z,4.90
2022-10-12T19:42:05.299Z,4.90
2022-10-12T19:45:26.059Z,5.80
2022-10-12T19:49:22.664Z,5.80
2022-10-12T19:52:50.416Z,5.70
2022-10-12T19:56:34.043Z,6.20
2022-10-12T19:59:58.260Z,5.70
2022-10-12T20:03:38.558Z,5.90
2022-10-12T20:07:13.737Z,6.30
2022-10-12T20:10:52.391Z,6.90
2022-10-12T20:14:31.070Z,5.90
2022-10-12T20:18:29.041Z,6.10
2022-10-12T20:21:49.416Z,6.60
2022-10-12T20:25:27.342Z,6.40
2022-10-12T20:29:23.594Z,7.30
2022-10-12T20:32:44.082Z,6.80
2022-10-12T20:36:24.338Z,8.30
2022-10-12T20:39:59.473Z,8.20
2022-10-12T20:43:40.465Z,8.90
2022-10-12T20:47:14.760Z,8.10
2022-10-12T20:50:52.384Z,7.40
2022-10-12T20:54:30.458Z,10.00
2022-10-12T20:58:07.728Z,13.50
2022-10-12T21:01:45.739Z,14.30
2022-10-12T21:05:23.128Z,12.30
2022-10-12T21:09:01.155Z,14.40
2022-10-12T21:12:38.442Z,14.60
2022-10-12T21:16:19.347Z,12.80
2022-10-12T21:19:53.921Z,12.80
2022-10-12T21:23:31.546Z,11.40
2022-10-12T21:27:09.072Z,9.00
2022-10-12T21:31:12.114Z,9.80
2022-10-12T21:34:52.982Z,9.50
2022-10-12T21:38:13.613Z,9.10
2022-10-12T21:42:09.995Z,7.90
2022-10-12T21:45:49.162Z,8.00
2022-10-12T21:49:10.835Z,7.30
2022-10-12T21:52:50.140Z,7.80
2022-10-12T21:56:29.790Z,8.70
2022-10-12T22:00:04.599Z,7.20
2022-10-12T22:04:12.810Z,7.80
2022-10-12T22:07:33.716Z,7.30
2022-10-12T22:11:12.798Z,7.50
2022-10-12T22:14:49.237Z,6.90
2022-10-12T22:18:26.662Z,6.90
2022-10-12T22:22:04.782Z,8.50
2022-10-12T22:25:42.256Z,6.90
2022-10-12T22:29:38.814Z,6.60
2022-10-12T22:32:59.388Z,7.50
2022-10-12T22:36:37.149Z,8.30
2022-10-12T22:40:14.955Z,8.40
2022-10-12T22:44:11.407Z,8.90
2022-10-12T22:47:32.230Z,7.70
2022-10-12T22:51:14.898Z,8.50
2022-10-12T22:54:47.949Z,8.70
2022-10-12T22:58:25.809Z,7.70
2022-10-12T23:02:03.503Z,6.30
2022-10-12T23:05:59.706Z,7.90
2022-10-12T23:09:20.870Z,7.40
2022-10-12T23:12:58.516Z,6.50
2022-10-12T23:16:54.966Z,7.90
2022-10-12T23:20:18.088Z,6.50
2022-10-12T23:23:54.355Z,6.50
2022-10-12T23:27:50.762Z,6.60
2022-10-12T23:31:30.950Z,6.60
2022-10-12T23:35:10.852Z,7.10
2022-10-12T23:38:33.057Z,5.90
2022-10-12T23:42:27.958Z,6.90
2022-10-12T23:45:48.565Z,6.40
2022-10-12T23:49:26.194Z,6.50
2022-10-12T23:53:03.882Z,5.90
2022-10-12T23:57:00.501Z,7.70
